Time;durP1;ratioP1;P1;durP2;ratioP2;P2;SDS_P1;SDS_P2;PMS_P1;PMS_P2;Temp;Humidity;BMP_temperature;BMP_pressure;BME280_temperature;BME280_humidity;BME280_pressure;Samples;Min_cycle;Max_cycle;Signal;HPM_P1;HPM_P2
2022/07/08 00:01:51;;;;;;;;;;;17.30;99.90;;;;;;5115836;28;19912;-77
2022/07/08 00:04:16;;;;;;;;;;;17.20;99.90;;;;;;5115674;28;20264;-78
2022/07/08 00:06:42;;;;;;;;;;;17.30;99.90;;;;;;5116015;28;19915;-78
2022/07/08 00:09:10;;;;;;;;;;;17.30;99.90;;;;;;5115650;28;19908;-78
2022/07/08 00:11:36;;;;;;;;;;;17.30;99.90;;;;;;5115612;28;19908;-77
2022/07/08 00:14:02;;;;;;;;;;;17.20;99.90;;;;;;5116102;28;20404;-80
2022/07/08 00:16:28;;;;;;;;;;;17.20;99.90;;;;;;5115925;28;19977;-78
2022/07/08 00:18:54;;;;;;;;;;;17.10;99.90;;;;;;5115426;28;19958;-78
2022/07/08 00:21:20;;;;;;;;;;;17.10;99.90;;;;;;5115402;28;19912;-78
2022/07/08 00:23:46;;;;;;;;;;;17.20;99.90;;;;;;5115365;28;19908;-79
2022/07/08 00:26:12;;;;;;;;;;;17.20;99.90;;;;;;5115351;28;19926;-79
2022/07/08 00:28:37;;;;;;;;;;;17.10;99.90;;;;;;5115246;28;19912;-78
2022/07/08 00:31:03;;;;;;;;;;;16.90;99.90;;;;;;5115210;28;20386;-79
2022/07/08 00:33:28;;;;;;;;;;;16.90;99.90;;;;;;5115149;28;19933;-79
2022/07/08 00:35:54;;;;;;;;;;;16.80;99.90;;;;;;5115121;28;19908;-79
2022/07/08 00:38:20;;;;;;;;;;;16.80;99.90;;;;;;5115543;28;20249;-79
2022/07/08 00:40:45;;;;;;;;;;;16.90;99.90;;;;;;5114768;28;19920;-79
2022/07/08 00:43:24;;;;;;;;;;;16.90;99.90;;;;;;5115290;28;19912;-78
2022/07/08 00:45:50;;;;;;;;;;;16.80;99.90;;;;;;5114912;28;20355;-79
2022/07/08 00:48:15;;;;;;;;;;;16.70;99.90;;;;;;5114787;28;19908;-78
2022/07/08 00:50:41;;;;;;;;;;;16.80;99.90;;;;;;5114342;28;19957;-79
2022/07/08 00:53:06;;;;;;;;;;;16.80;99.90;;;;;;5114835;28;19922;-78
2022/07/08 00:55:32;;;;;;;;;;;16.70;99.90;;;;;;5114948;28;20363;-79
2022/07/08 00:57:57;;;;;;;;;;;16.70;99.90;;;;;;5114764;28;19907;-79
2022/07/08 01:00:23;;;;;;;;;;;16.80;99.90;;;;;;5114628;28;20428;-78
2022/07/08 01:02:51;;;;;;;;;;;16.70;99.90;;;;;;5114698;28;19914;-79
2022/07/08 01:05:16;;;;;;;;;;;16.70;99.90;;;;;;5114660;28;19915;-77
2022/07/08 01:07:43;;;;;;;;;;;16.50;99.90;;;;;;5114645;28;19908;-79
2022/07/08 01:10:09;;;;;;;;;;;16.50;99.90;;;;;;5114522;28;19911;-79
2022/07/08 01:12:34;;;;;;;;;;;16.50;99.90;;;;;;5115038;28;19913;-79
2022/07/08 01:15:00;;;;;;;;;;;16.60;99.90;;;;;;5114686;28;19957;-78
2022/07/08 01:17:27;;;;;;;;;;;16.50;99.90;;;;;;5114503;28;19907;-78
2022/07/08 01:19:52;;;;;;;;;;;16.50;99.90;;;;;;5114271;28;19908;-78
2022/07/08 01:22:18;;;;;;;;;;;16.50;99.90;;;;;;5114543;28;19956;-79
2022/07/08 01:24:44;;;;;;;;;;;16.50;99.90;;;;;;5114559;28;19914;-79
2022/07/08 01:27:09;;;;;;;;;;;16.50;99.90;;;;;;5114316;28;20291;-80
2022/07/08 01:29:35;;;;;;;;;;;16.50;99.90;;;;;;5114298;28;19954;-79
2022/07/08 01:32:01;;;;;;;;;;;16.60;99.90;;;;;;5114227;28;19915;-79
2022/07/08 01:34:26;;;;;;;;;;;16.50;99.90;;;;;;5114196;28;19915;-79
2022/07/08 01:36:52;;;;;;;;;;;16.20;99.90;;;;;;5114472;28;19957;-79
2022/07/08 01:39:17;;;;;;;;;;;16.40;99.90;;;;;;5114399;28;19989;-79
2022/07/08 01:41:43;;;;;;;;;;;16.40;99.90;;;;;;5113668;28;19919;-79
2022/07/08 01:44:09;;;;;;;;;;;16.40;99.90;;;;;;5114035;28;20372;-79
2022/07/08 01:46:35;;;;;;;;;;;16.50;99.90;;;;;;5095778;28;19943;-79
2022/07/08 01:49:00;;;;;;;;;;;16.40;99.90;;;;;;5114009;28;19960;-77
2022/07/08 01:51:26;;;;;;;;;;;16.40;99.90;;;;;;5114077;28;20429;-78
2022/07/08 01:53:52;;;;;;;;;;;16.40;99.90;;;;;;5114030;28;19998;-78
2022/07/08 01:56:17;;;;;;;;;;;16.30;99.90;;;;;;5114538;28;20352;-79
2022/07/08 01:58:43;;;;;;;;;;;16.30;99.90;;;;;;5114015;28;19908;-78
2022/07/08 02:01:08;;;;;;;;;;;16.10;99.90;;;;;;5114003;28;19961;-78
2022/07/08 02:03:34;;;;;;;;;;;16.10;99.90;;;;;;5099277;28;19912;-79
2022/07/08 02:05:59;;;;;;;;;;;16.10;99.90;;;;;;5118103;28;19908;-79
2022/07/08 02:08:25;;;;;;;;;;;16.10;99.90;;;;;;5118041;28;19908;-77
2022/07/08 02:13:35;;;;;;;;;;;16.10;99.90;;;;;;5118242;28;19915;-79
2022/07/08 02:16:00;;;;;;;;;;;16.10;99.90;;;;;;5117931;28;19907;-78
2022/07/08 02:18:26;;;;;;;;;;;16.00;99.90;;;;;;5118049;28;20345;-78
2022/07/08 02:20:51;;;;;;;;;;;15.90;99.90;;;;;;5118038;28;19922;-77
2022/07/08 02:23:17;;;;;;;;;;;15.60;99.90;;;;;;5117744;28;19907;-78
2022/07/08 02:25:42;;;;;;;;;;;15.30;99.90;;;;;;5117616;28;19915;-78
2022/07/08 02:28:08;;;;;;;;;;;15.30;99.90;;;;;;5117634;28;19915;-78
2022/07/08 02:30:33;;;;;;;;;;;15.40;99.90;;;;;;5117614;28;19957;-78
2022/07/08 02:32:59;;;;;;;;;;;15.50;99.90;;;;;;5117732;28;20283;-78
2022/07/08 02:35:25;;;;;;;;;;;15.50;99.90;;;;;;5117473;28;19911;-79
2022/07/08 02:37:50;;;;;;;;;;;15.60;99.90;;;;;;5117705;28;20042;-78
2022/07/08 02:40:16;;;;;;;;;;;15.50;99.90;;;;;;5117316;28;19926;-78
2022/07/08 02:42:41;;;;;;;;;;;15.40;99.90;;;;;;5117342;28;19912;-78
2022/07/08 02:45:08;;;;;;;;;;;15.30;99.90;;;;;;5117353;28;20329;-79
2022/07/08 02:47:33;;;;;;;;;;;15.40;99.90;;;;;;5117412;28;19907;-79
2022/07/08 02:49:59;;;;;;;;;;;15.00;99.90;;;;;;5117367;28;20364;-78
2022/07/08 02:52:24;;;;;;;;;;;14.60;99.90;;;;;;5117465;28;19908;-78
2022/07/08 02:54:50;;;;;;;;;;;14.40;99.90;;;;;;5117122;28;19907;-78
2022/07/08 02:57:16;;;;;;;;;;;14.50;99.90;;;;;;5117096;28;19962;-79
2022/07/08 02:59:41;;;;;;;;;;;14.70;99.90;;;;;;5117098;28;20334;-78
2022/07/08 03:02:07;;;;;;;;;;;15.10;99.90;;;;;;5116935;28;19951;-79
2022/07/08 03:04:32;;;;;;;;;;;15.20;99.90;;;;;;5098603;28;20279;-78
2022/07/08 03:06:58;;;;;;;;;;;15.30;99.90;;;;;;5116974;28;19954;-79
2022/07/08 03:09:23;;;;;;;;;;;15.30;99.90;;;;;;5098579;28;19960;-79
2022/07/08 03:11:49;;;;;;;;;;;15.10;99.90;;;;;;5116788;28;20280;-78
2022/07/08 03:14:14;;;;;;;;;;;15.10;99.90;;;;;;5117186;28;19956;-79
2022/07/08 03:16:40;;;;;;;;;;;15.10;99.90;;;;;;5116642;28;19914;-78
2022/07/08 03:19:06;;;;;;;;;;;14.80;99.90;;;;;;5116641;28;19914;-78
2022/07/08 03:21:32;;;;;;;;;;;14.80;99.90;;;;;;5116667;28;19976;-77
2022/07/08 03:23:57;;;;;;;;;;;14.90;99.90;;;;;;5116534;28;19908;-79
2022/07/08 03:26:23;;;;;;;;;;;14.90;99.90;;;;;;5116520;28;19908;-78
2022/07/08 03:28:48;;;;;;;;;;;14.90;99.90;;;;;;5116446;28;19919;-79
2022/07/08 03:31:14;;;;;;;;;;;15.00;99.90;;;;;;5116443;28;19908;-78
2022/07/08 03:33:39;;;;;;;;;;;14.70;99.90;;;;;;5098059;28;19908;-79
2022/07/08 03:36:08;;;;;;;;;;;14.20;99.90;;;;;;5097948;28;19908;-77
2022/07/08 03:38:35;;;;;;;;;;;14.10;99.90;;;;;;5116239;28;19939;-78
2022/07/08 03:43:44;;;;;;;;;;;14.40;99.90;;;;;;5116432;28;19953;-77
2022/07/08 03:46:10;;;;;;;;;;;14.40;99.90;;;;;;5116174;28;19912;-78
2022/07/08 03:48:36;;;;;;;;;;;14.30;99.90;;;;;;5116040;28;19915;-79
2022/07/08 03:51:01;;;;;;;;;;;14.30;99.90;;;;;;5097689;28;20367;-78
2022/07/08 03:53:27;;;;;;;;;;;14.40;99.90;;;;;;5116176;28;19915;-78
2022/07/08 03:55:55;;;;;;;;;;;14.60;99.90;;;;;;5115972;28;20371;-78
2022/07/08 03:58:21;;;;;;;;;;;14.60;99.90;;;;;;5115982;28;19918;-78
2022/07/08 04:00:46;;;;;;;;;;;14.60;99.90;;;;;;5116074;28;20010;-77
2022/07/08 04:03:12;;;;;;;;;;;14.50;99.90;;;;;;5115954;28;19908;-78
2022/07/08 04:05:38;;;;;;;;;;;14.60;99.90;;;;;;5115786;28;20363;-79
2022/07/08 04:08:04;;;;;;;;;;;14.30;99.90;;;;;;5115925;28;19909;-78
2022/07/08 04:10:30;;;;;;;;;;;14.00;99.90;;;;;;5115554;28;19918;-78
2022/07/08 04:12:55;;;;;;;;;;;14.00;99.90;;;;;;5116178;28;19908;-77
2022/07/08 04:15:21;;;;;;;;;;;14.10;99.90;;;;;;5097289;28;20321;-77
2022/07/08 04:17:47;;;;;;;;;;;14.20;99.90;;;;;;5115539;28;19908;-78
2022/07/08 04:20:13;;;;;;;;;;;14.20;99.90;;;;;;5115383;28;19915;-78
2022/07/08 04:22:38;;;;;;;;;;;14.40;99.90;;;;;;5097096;28;19908;-78
2022/07/08 04:25:05;;;;;;;;;;;14.50;99.90;;;;;;5114524;28;19908;-78
2022/07/08 04:27:30;;;;;;;;;;;14.50;99.90;;;;;;5115514;28;19973;-77
2022/07/08 04:29:56;;;;;;;;;;;14.20;99.90;;;;;;5115171;28;20380;-78
2022/07/08 04:32:21;;;;;;;;;;;14.10;99.90;;;;;;5115251;28;19912;-78
2022/07/08 04:34:47;;;;;;;;;;;13.70;99.90;;;;;;5115587;28;19951;-79
2022/07/08 04:37:13;;;;;;;;;;;13.80;99.90;;;;;;5115127;28;19922;-79
2022/07/08 04:39:38;;;;;;;;;;;14.00;99.90;;;;;;5114815;28;19908;-78
2022/07/08 04:42:04;;;;;;;;;;;14.10;99.90;;;;;;5115186;28;19918;-77
2022/07/08 04:44:30;;;;;;;;;;;14.20;99.90;;;;;;5114988;28;19991;-78
2022/07/08 04:46:55;;;;;;;;;;;14.10;99.90;;;;;;5115245;28;20348;-79
2022/07/08 04:49:21;;;;;;;;;;;13.90;99.90;;;;;;5115270;28;20459;-78
2022/07/08 04:51:47;;;;;;;;;;;13.50;99.90;;;;;;5114795;28;19918;-78
2022/07/08 04:54:12;;;;;;;;;;;13.40;99.90;;;;;;5114940;28;19907;-79
2022/07/08 04:56:38;;;;;;;;;;;13.60;99.90;;;;;;5114761;28;19908;-78
2022/07/08 04:59:04;;;;;;;;;;;13.80;99.90;;;;;;5114769;28;20367;-79
2022/07/08 05:01:29;;;;;;;;;;;14.10;99.90;;;;;;5114683;28;19915;-78
2022/07/08 05:03:55;;;;;;;;;;;14.40;99.90;;;;;;5114763;28;19908;-79
2022/07/08 05:06:21;;;;;;;;;;;14.60;99.90;;;;;;5096472;28;20375;-78
2022/07/08 05:08:46;;;;;;;;;;;14.60;99.90;;;;;;5115044;28;19954;-79
2022/07/08 05:11:12;;;;;;;;;;;14.60;99.90;;;;;;5114732;28;20371;-77
2022/07/08 05:13:37;;;;;;;;;;;14.60;99.90;;;;;;5115063;28;19911;-76
2022/07/08 05:16:03;;;;;;;;;;;14.70;99.90;;;;;;5114470;28;19939;-78
2022/07/08 05:18:29;;;;;;;;;;;14.70;99.90;;;;;;5114495;28;19908;-78
2022/07/08 05:20:54;;;;;;;;;;;14.70;99.90;;;;;;5114427;28;19947;-78
2022/07/08 05:23:20;;;;;;;;;;;14.80;99.90;;;;;;5114302;28;19960;-80
2022/07/08 05:25:45;;;;;;;;;;;14.90;99.90;;;;;;5114735;28;19908;-78
2022/07/08 05:28:11;;;;;;;;;;;15.00;99.90;;;;;;5114304;28;19907;-78
2022/07/08 05:30:36;;;;;;;;;;;15.10;99.90;;;;;;5114198;28;19947;-79
2022/07/08 05:33:02;;;;;;;;;;;15.20;99.90;;;;;;5114243;28;20299;-78
2022/07/08 05:35:28;;;;;;;;;;;15.30;99.90;;;;;;5114518;28;19959;-78
2022/07/08 05:37:54;;;;;;;;;;;15.40;99.90;;;;;;5114474;28;19914;-78
2022/07/08 05:40:19;;;;;;;;;;;15.50;99.90;;;;;;5114037;28;19924;-80
2022/07/08 05:42:45;;;;;;;;;;;15.30;99.90;;;;;;5114226;28;20383;-78
2022/07/08 05:45:11;;;;;;;;;;;15.30;99.90;;;;;;5114100;28;19908;-78
2022/07/08 05:47:37;;;;;;;;;;;15.40;99.90;;;;;;5095827;28;19953;-77
2022/07/08 05:50:03;;;;;;;;;;;15.60;99.90;;;;;;5113994;28;19908;-79
2022/07/08 05:52:28;;;;;;;;;;;15.50;99.90;;;;;;5114009;28;19908;-79
2022/07/08 05:54:54;;;;;;;;;;;15.60;99.90;;;;;;5114036;28;19908;-79
2022/07/08 05:57:20;;;;;;;;;;;15.80;99.90;;;;;;5114046;28;19916;-79
2022/07/08 05:59:46;;;;;;;;;;;15.80;99.90;;;;;;5113939;28;19907;-77
2022/07/08 06:02:11;;;;;;;;;;;16.00;99.90;;;;;;5114168;28;19936;-79
2022/07/08 06:04:37;;;;;;;;;;;16.10;99.90;;;;;;5113945;28;19908;-79
2022/07/08 06:07:03;;;;;;;;;;;16.20;99.90;;;;;;5113896;28;20386;-79
2022/07/08 06:09:28;;;;;;;;;;;16.20;99.90;;;;;;5114194;28;19915;-79
2022/07/08 06:11:54;;;;;;;;;;;16.30;99.90;;;;;;5113754;28;20036;-77
2022/07/08 06:14:20;;;;;;;;;;;16.50;99.90;;;;;;5114403;28;19908;-79
2022/07/08 06:16:48;;;;;;;;;;;16.60;99.90;;;;;;5113695;28;19915;-77
2022/07/08 06:19:14;;;;;;;;;;;16.70;99.90;;;;;;5113996;28;19908;-78
2022/07/08 06:21:40;;;;;;;;;;;16.50;99.90;;;;;;5113690;28;19908;-79
2022/07/08 06:24:05;;;;;;;;;;;16.60;99.90;;;;;;5113744;28;19914;-80
2022/07/08 06:26:31;;;;;;;;;;;16.70;99.90;;;;;;5113708;28;19947;-79
2022/07/08 06:28:56;;;;;;;;;;;16.90;99.90;;;;;;5113647;28;19908;-79
2022/07/08 06:31:22;;;;;;;;;;;16.90;99.90;;;;;;5113895;28;20010;-78
2022/07/08 06:33:48;;;;;;;;;;;17.00;99.90;;;;;;5113735;28;19912;-80
2022/07/08 06:36:14;;;;;;;;;;;17.10;99.90;;;;;;5113668;28;19908;-80
2022/07/08 06:38:39;;;;;;;;;;;17.30;99.90;;;;;;5113584;28;20368;-79
2022/07/08 06:41:05;;;;;;;;;;;17.50;99.90;;;;;;5113336;28;19919;-79
2022/07/08 06:43:31;;;;;;;;;;;17.70;99.90;;;;;;5113508;28;19908;-79
2022/07/08 06:45:56;;;;;;;;;;;17.80;99.90;;;;;;5113679;28;19908;-78
2022/07/08 06:48:22;;;;;;;;;;;18.00;99.90;;;;;;5114834;28;19912;-78
2022/07/08 06:50:48;;;;;;;;;;;18.10;99.90;;;;;;5098836;28;19912;-78
2022/07/08 06:53:13;;;;;;;;;;;18.00;99.90;;;;;;5117452;28;20279;-78
2022/07/08 06:55:39;;;;;;;;;;;18.20;99.90;;;;;;5117153;28;20384;-78
2022/07/08 06:58:04;;;;;;;;;;;18.30;99.90;;;;;;5117325;28;19911;-77
2022/07/08 07:00:30;;;;;;;;;;;18.50;99.90;;;;;;5117035;28;19907;-78
2022/07/08 07:02:56;;;;;;;;;;;18.50;99.90;;;;;;5117429;28;19941;-79
2022/07/08 07:05:22;;;;;;;;;;;18.60;99.90;;;;;;5116943;28;19919;-78
2022/07/08 07:07:47;;;;;;;;;;;18.60;99.90;;;;;;5098304;28;19907;-79
2022/07/08 07:10:13;;;;;;;;;;;18.70;99.90;;;;;;5116757;28;20293;-80
2022/07/08 07:12:39;;;;;;;;;;;18.70;99.90;;;;;;5116921;28;19908;-79
2022/07/08 07:15:05;;;;;;;;;;;18.90;99.90;;;;;;5099139;28;19908;-79
2022/07/08 07:17:30;;;;;;;;;;;19.00;99.90;;;;;;5116677;28;19994;-78
2022/07/08 07:19:57;;;;;;;;;;;19.10;99.90;;;;;;5116772;28;19907;-77
2022/07/08 07:22:23;;;;;;;;;;;19.30;99.90;;;;;;5116747;28;19912;-79
2022/07/08 07:24:48;;;;;;;;;;;19.30;99.90;;;;;;5116994;28;19919;-79
2022/07/08 07:27:14;;;;;;;;;;;19.40;99.90;;;;;;5116527;28;19907;-78
2022/07/08 07:29:39;;;;;;;;;;;19.60;99.90;;;;;;5116615;28;20325;-78
2022/07/08 07:32:05;;;;;;;;;;;19.70;99.90;;;;;;5117005;28;19911;-80
2022/07/08 07:34:31;;;;;;;;;;;19.70;99.90;;;;;;5116422;28;19957;-78
2022/07/08 07:36:56;;;;;;;;;;;19.70;99.90;;;;;;5116654;28;20264;-79
2022/07/08 07:39:22;;;;;;;;;;;19.80;99.90;;;;;;5116412;28;20402;-80
2022/07/08 07:41:47;;;;;;;;;;;20.00;99.90;;;;;;5115893;28;20014;-79
2022/07/08 07:44:13;;;;;;;;;;;20.20;99.90;;;;;;5116192;28;19915;-78
2022/07/08 07:46:39;;;;;;;;;;;22.00;99.90;;;;;;5116175;28;19908;-79
2022/07/08 07:49:04;;;;;;;;;;;25.40;99.90;;;;;;5116051;28;19908;-80
2022/07/08 07:51:30;;;;;;;;;;;27.70;91.50;;;;;;5097789;28;20006;-80
2022/07/08 07:53:55;;;;;;;;;;;29.50;83.20;;;;;;5116083;28;20367;-81
2022/07/08 07:56:21;;;;;;;;;;;30.60;77.20;;;;;;5116334;28;19930;-81
2022/07/08 07:58:47;;;;;;;;;;;31.90;72.00;;;;;;5116389;28;19934;-79
2022/07/08 08:01:12;;;;;;;;;;;31.60;66.90;;;;;;5115871;28;19953;-80
2022/07/08 08:03:38;;;;;;;;;;;32.30;66.90;;;;;;5116064;28;19908;-81
2022/07/08 08:06:04;;;;;;;;;;;32.60;62.90;;;;;;5116479;28;19912;-80
2022/07/08 08:08:33;;;;;;;;;;;32.20;62.80;;;;;;5115991;28;19908;-80
2022/07/08 08:11:05;;;;;;;;;;;31.50;63.00;;;;;;5115602;28;19911;-78
2022/07/08 08:13:31;;;;;;;;;;;31.00;61.80;;;;;;5115981;28;19908;-79
2022/07/08 08:15:57;;;;;;;;;;;30.50;62.10;;;;;;5115668;28;19915;-80
2022/07/08 08:18:23;;;;;;;;;;;30.40;63.60;;;;;;5115588;28;19912;-82
2022/07/08 08:20:49;;;;;;;;;;;30.10;65.40;;;;;;5116186;28;19912;-80
2022/07/08 08:23:14;;;;;;;;;;;30.40;65.90;;;;;;5115584;28;20379;-81
2022/07/08 08:25:41;;;;;;;;;;;30.60;66.50;;;;;;5115680;28;20282;-77
2022/07/08 08:28:07;;;;;;;;;;;31.00;64.40;;;;;;5115354;28;19953;-76
2022/07/08 08:30:32;;;;;;;;;;;31.00;65.20;;;;;;5115682;28;19919;-77
2022/07/08 08:32:58;;;;;;;;;;;31.10;65.70;;;;;;5115234;28;19915;-78
2022/07/08 08:35:24;;;;;;;;;;;30.70;63.60;;;;;;5115240;28;20363;-79
2022/07/08 08:37:49;;;;;;;;;;;29.90;61.70;;;;;;5115272;28;19908;-77
2022/07/08 08:40:15;;;;;;;;;;;29.20;62.90;;;;;;5114955;28;20376;-76
2022/07/08 08:42:41;;;;;;;;;;;28.60;63.50;;;;;;5115052;28;20277;-77
2022/07/08 08:45:08;;;;;;;;;;;28.70;64.50;;;;;;5115373;28;20415;-78
2022/07/08 08:47:34;;;;;;;;;;;28.50;65.20;;;;;;5096720;28;20322;-76
2022/07/08 08:52:51;;;;;;;;;;;29.80;64.50;;;;;;5115384;28;19997;-77
2022/07/08 08:55:28;;;;;;;;;;;30.00;62.30;;;;;;5115214;28;19915;-79
2022/07/08 08:57:56;;;;;;;;;;;29.30;61.40;;;;;;5116830;28;20006;-77
2022/07/08 09:00:22;;;;;;;;;;;28.70;62.80;;;;;;5117362;28;19916;-77
2022/07/08 09:02:47;;;;;;;;;;;28.90;63.00;;;;;;5117810;28;19915;-76
2022/07/08 09:05:13;;;;;;;;;;;28.80;64.20;;;;;;5117407;28;19908;-76
2022/07/08 09:07:39;;;;;;;;;;;28.90;64.40;;;;;;5117478;28;20299;-79
2022/07/08 09:10:06;;;;;;;;;;;29.40;62.90;;;;;;5117308;28;19908;-76
2022/07/08 09:12:31;;;;;;;;;;;29.60;61.90;;;;;;5116500;28;19912;-78
2022/07/08 09:15:00;;;;;;;;;;;29.50;62.20;;;;;;5116153;28;20265;-81
2022/07/08 09:17:26;;;;;;;;;;;30.20;62.10;;;;;;5114611;28;19941;-78
2022/07/08 09:19:51;;;;;;;;;;;30.10;61.50;;;;;;5114509;28;19992;-77
2022/07/08 09:22:20;;;;;;;;;;;30.00;63.10;;;;;;5114942;28;20343;-78
2022/07/08 09:24:45;;;;;;;;;;;29.90;61.30;;;;;;5114965;28;19960;-80
2022/07/08 09:27:14;;;;;;;;;;;30.60;61.50;;;;;;5114356;28;19913;-81
2022/07/08 09:29:54;;;;;;;;;;;30.10;61.10;;;;;;5114867;28;20386;-82
2022/07/08 09:32:20;;;;;;;;;;;30.50;61.40;;;;;;5114300;28;19912;-80
2022/07/08 09:34:45;;;;;;;;;;;31.30;60.80;;;;;;5114321;28;20368;-79
2022/07/08 09:37:12;;;;;;;;;;;30.80;60.00;;;;;;5114233;28;19908;-80
2022/07/08 09:39:38;;;;;;;;;;;30.80;59.80;;;;;;5113942;28;19954;-78
2022/07/08 09:42:07;;;;;;;;;;;30.90;60.40;;;;;;5114516;28;19916;-80
2022/07/08 09:44:33;;;;;;;;;;;31.00;59.20;;;;;;5114064;28;19912;-81
2022/07/08 09:46:59;;;;;;;;;;;31.10;59.20;;;;;;5114024;28;19908;-78
2022/07/08 09:49:28;;;;;;;;;;;31.10;59.70;;;;;;5114076;28;19915;-81
2022/07/08 09:51:54;;;;;;;;;;;31.20;59.80;;;;;;5114232;28;20431;-82
2022/07/08 09:54:21;;;;;;;;;;;32.10;60.10;;;;;;5114109;28;19969;-83
2022/07/08 09:57:02;;;;;;;;;;;32.50;58.90;;;;;;5114050;28;20045;-84
2022/07/08 09:59:28;;;;;;;;;;;32.70;57.90;;;;;;5114132;28;19992;-83
2022/07/08 10:01:54;;;;;;;;;;;32.30;57.80;;;;;;5113860;28;20282;-83
2022/07/08 10:04:22;;;;;;;;;;;31.90;58.70;;;;;;5113977;28;19907;-82
2022/07/08 10:06:48;;;;;;;;;;;32.60;58.30;;;;;;5113953;28;19908;-82
2022/07/08 10:09:14;;;;;;;;;;;33.40;57.50;;;;;;5114101;28;19957;-83
2022/07/08 10:11:39;;;;;;;;;;;33.80;56.60;;;;;;5113873;28;20003;-82
2022/07/08 10:14:05;;;;;;;;;;;33.60;55.80;;;;;;5114752;28;19927;-84
2022/07/08 10:16:33;;;;;;;;;;;33.80;55.10;;;;;;5113907;28;20001;-82
2022/07/08 10:19:00;;;;;;;;;;;33.70;56.00;;;;;;5113732;28;19915;-84
2022/07/08 10:21:26;;;;;;;;;;;33.30;54.80;;;;;;5113871;28;19911;-83
2022/07/08 10:23:53;;;;;;;;;;;33.10;55.60;;;;;;5116336;28;19908;-80
2022/07/08 10:26:22;;;;;;;;;;;33.00;55.90;;;;;;5117828;28;20382;-81
2022/07/08 10:28:59;;;;;;;;;;;32.90;55.40;;;;;;5117690;28;20330;-79
2022/07/08 10:31:25;;;;;;;;;;;33.90;54.50;;;;;;5117798;28;19915;-80
2022/07/08 10:33:58;;;;;;;;;;;33.90;54.20;;;;;;5117593;28;19907;-79
2022/07/08 10:36:23;;;;;;;;;;;33.40;53.90;;;;;;5117570;28;19908;-80
2022/07/08 10:38:50;;;;;;;;;;;33.30;54.60;;;;;;5117832;28;19915;-77
2022/07/08 10:41:20;;;;;;;;;;;33.90;54.40;;;;;;5117268;28;20021;-79
2022/07/08 10:43:52;;;;;;;;;;;34.50;53.20;;;;;;5117436;28;20375;-78
2022/07/08 10:46:20;;;;;;;;;;;34.70;52.40;;;;;;5117602;28;20002;-77
2022/07/08 10:48:52;;;;;;;;;;;34.30;52.10;;;;;;5099018;28;20351;-77
2022/07/08 10:51:17;;;;;;;;;;;34.80;52.50;;;;;;5117315;28;20362;-78
2022/07/08 10:53:46;;;;;;;;;;;35.10;52.10;;;;;;5117327;28;19915;-77
2022/07/08 10:56:13;;;;;;;;;;;35.00;51.80;;;;;;5117154;28;20403;-78
2022/07/08 10:58:57;;;;;;;;;;;34.30;52.50;;;;;;5117481;28;19908;-78
2022/07/08 11:01:26;;;;;;;;;;;34.30;52.10;;;;;;5111365;28;19922;-77
2022/07/08 11:03:51;;;;;;;;;;;34.80;51.80;;;;;;5100510;28;19922;-79
2022/07/08 11:06:38;;;;;;;;;;;34.60;51.10;;;;;;5103987;28;20010;-78
2022/07/08 11:09:07;;;;;;;;;;;35.30;51.20;;;;;;5105516;28;19908;-78
2022/07/08 11:11:35;;;;;;;;;;;36.00;50.80;;;;;;5087671;28;20376;-78
2022/07/08 11:14:01;;;;;;;;;;;35.80;50.40;;;;;;5107874;28;20011;-79
2022/07/08 11:16:30;;;;;;;;;;;35.90;51.10;;;;;;5105957;28;19955;-79
2022/07/08 11:18:56;;;;;;;;;;;36.30;51.00;;;;;;5105237;28;20392;-79
2022/07/08 11:21:22;;;;;;;;;;;35.60;49.70;;;;;;5104946;28;20011;-79
2022/07/08 11:23:48;;;;;;;;;;;36.40;49.90;;;;;;5106483;28;19908;-78
2022/07/08 11:26:17;;;;;;;;;;;37.60;49.90;;;;;;5106916;28;19946;-79
2022/07/08 11:28:43;;;;;;;;;;;36.80;49.20;;;;;;5105384;28;19950;-80
2022/07/08 11:31:19;;;;;;;;;;;36.80;49.80;;;;;;5117326;28;19908;-79
2022/07/08 11:33:45;;;;;;;;;;;37.30;49.70;;;;;;5116950;28;19951;-80
2022/07/08 11:36:14;;;;;;;;;;;37.00;49.10;;;;;;5117318;28;19998;-78
2022/07/08 11:38:40;;;;;;;;;;;36.80;49.90;;;;;;5116599;28;19976;-81
2022/07/08 11:41:06;;;;;;;;;;;37.30;49.60;;;;;;5103119;28;19982;-81
2022/07/08 11:43:31;;;;;;;;;;;37.50;48.80;;;;;;5095944;28;20354;-79
2022/07/08 11:45:57;;;;;;;;;;;37.00;49.30;;;;;;5096150;28;19914;-79
2022/07/08 11:48:34;;;;;;;;;;;36.80;49.00;;;;;;5095740;28;19912;-79
2022/07/08 11:51:00;;;;;;;;;;;36.60;49.90;;;;;;5095802;28;19908;-79
2022/07/08 11:53:25;;;;;;;;;;;37.70;49.90;;;;;;5095673;28;19908;-79
2022/07/08 11:55:51;;;;;;;;;;;37.70;49.30;;;;;;5095818;28;19908;-81
2022/07/08 11:58:23;;;;;;;;;;;37.40;50.10;;;;;;5095615;28;20390;-80
2022/07/08 12:00:50;;;;;;;;;;;37.80;49.60;;;;;;5095445;28;19931;-79
2022/07/08 12:03:15;;;;;;;;;;;38.70;48.80;;;;;;5095684;28;19908;-81
2022/07/08 12:05:41;;;;;;;;;;;39.00;49.30;;;;;;5095490;28;19991;-79
2022/07/08 12:08:13;;;;;;;;;;;38.80;49.10;;;;;;5095514;28;19912;-80
2022/07/08 12:10:39;;;;;;;;;;;38.30;48.00;;;;;;5095443;28;19915;-78
2022/07/08 12:13:04;;;;;;;;;;;37.40;48.80;;;;;;5095447;28;19908;-80
2022/07/08 12:15:37;;;;;;;;;;;37.10;49.10;;;;;;5095923;28;20311;-79
2022/07/08 12:18:03;;;;;;;;;;;37.40;50.10;;;;;;5095223;28;19912;-80
2022/07/08 12:20:33;;;;;;;;;;;37.70;49.60;;;;;;5095110;28;19951;-80
2022/07/08 12:22:58;;;;;;;;;;;38.90;49.40;;;;;;5095451;28;19907;-80
2022/07/08 12:25:24;;;;;;;;;;;38.60;49.40;;;;;;5077050;28;19908;-79
2022/07/08 12:27:56;;;;;;;;;;;38.40;49.60;;;;;;5095469;28;19908;-80
2022/07/08 12:30:26;;;;;;;;;;;38.30;49.60;;;;;;5095158;28;19913;-80
2022/07/08 12:32:52;;;;;;;;;;;38.50;49.90;;;;;;5095282;28;19973;-79
2022/07/08 12:35:18;;;;;;;;;;;38.00;48.60;;;;;;5095382;28;19994;-79
2022/07/08 12:37:43;;;;;;;;;;;38.70;49.20;;;;;;5096429;28;19914;-79
2022/07/08 12:40:18;;;;;;;;;;;39.10;48.80;;;;;;5095495;28;19950;-81
2022/07/08 12:43:01;;;;;;;;;;;39.80;49.20;;;;;;5095831;28;19912;-82
2022/07/08 12:45:26;;;;;;;;;;;39.50;48.80;;;;;;5095925;28;19908;-81
2022/07/08 12:47:52;;;;;;;;;;;39.40;49.60;;;;;;5095581;28;19926;-79
2022/07/08 12:50:21;;;;;;;;;;;39.20;49.90;;;;;;5094889;28;20046;-78
2022/07/08 12:52:47;;;;;;;;;;;39.40;49.00;;;;;;5095372;28;20007;-79
2022/07/08 12:55:12;;;;;;;;;;;38.90;49.70;;;;;;5095280;28;19912;-80
2022/07/08 12:57:38;;;;;;;;;;;38.60;49.30;;;;;;5076455;28;19908;-78
2022/07/08 13:00:04;;;;;;;;;;;38.90;50.20;;;;;;5076292;28;19912;-81
2022/07/08 13:02:29;;;;;;;;;;;39.00;49.90;;;;;;5094572;28;19919;-80
2022/07/08 13:04:55;;;;;;;;;;;39.60;49.60;;;;;;5094509;28;19991;-80
2022/07/08 13:07:21;;;;;;;;;;;39.40;50.30;;;;;;5094825;28;19909;-80
2022/07/08 13:09:46;;;;;;;;;;;39.70;49.90;;;;;;5094965;28;19908;-79
2022/07/08 13:12:12;;;;;;;;;;;38.40;50.50;;;;;;5094337;28;19912;-79
2022/07/08 13:14:37;;;;;;;;;;;38.90;49.90;;;;;;5094902;28;19947;-80
2022/07/08 13:17:03;;;;;;;;;;;39.00;50.10;;;;;;5094777;28;20371;-80
2022/07/08 13:19:29;;;;;;;;;;;38.90;50.50;;;;;;5095575;28;19915;-79
2022/07/08 13:21:56;;;;;;;;;;;39.20;50.60;;;;;;5094910;28;19961;-79
2022/07/08 13:24:22;;;;;;;;;;;39.30;51.30;;;;;;5076320;28;19908;-80
2022/07/08 13:26:48;;;;;;;;;;;38.50;49.90;;;;;;5095192;28;19908;-80
2022/07/08 13:29:14;;;;;;;;;;;37.60;50.00;;;;;;5095104;28;19908;-79
2022/07/08 13:31:39;;;;;;;;;;;38.00;50.40;;;;;;5094261;28;19908;-81
2022/07/08 13:34:05;;;;;;;;;;;38.20;50.30;;;;;;5094323;28;19909;-83
2022/07/08 13:36:31;;;;;;;;;;;38.70;50.50;;;;;;5093855;28;19915;-82
2022/07/08 13:38:57;;;;;;;;;;;38.60;50.60;;;;;;5093931;28;19915;-81
2022/07/08 13:41:29;;;;;;;;;;;39.30;49.90;;;;;;5093350;28;19924;-82
2022/07/08 13:43:58;;;;;;;;;;;39.20;50.70;;;;;;5094111;28;19908;-82
2022/07/08 13:46:24;;;;;;;;;;;39.50;50.40;;;;;;5093690;28;19915;-83
2022/07/08 13:48:51;;;;;;;;;;;39.70;49.80;;;;;;5093767;28;19987;-82
2022/07/08 13:51:16;;;;;;;;;;;39.30;49.50;;;;;;5093726;28;19943;-83
2022/07/08 13:53:42;;;;;;;;;;;39.60;49.90;;;;;;5093876;28;19961;-83
2022/07/08 13:56:08;;;;;;;;;;;39.40;49.30;;;;;;5094030;28;20276;-82
2022/07/08 13:58:33;;;;;;;;;;;39.40;49.60;;;;;;5097045;28;19991;-81
2022/07/08 14:00:59;;;;;;;;;;;39.00;49.60;;;;;;5097868;28;19958;-85
2022/07/08 14:03:25;;;;;;;;;;;39.60;49.90;;;;;;5097818;28;19907;-83
2022/07/08 14:05:50;;;;;;;;;;;39.80;49.40;;;;;;5097685;28;20420;-81
2022/07/08 14:08:16;;;;;;;;;;;39.30;49.10;;;;;;5097977;28;19940;-81
2022/07/08 14:10:42;;;;;;;;;;;39.10;49.50;;;;;;5097894;28;20280;-84
2022/07/08 14:13:07;;;;;;;;;;;39.10;49.50;;;;;;5097540;28;19998;-80
2022/07/08 14:15:33;;;;;;;;;;;38.60;47.50;;;;;;5098667;28;19908;-81
2022/07/08 14:17:58;;;;;;;;;;;39.30;47.80;;;;;;5097542;28;20261;-81
2022/07/08 14:20:24;;;;;;;;;;;39.60;46.80;;;;;;5097494;28;19908;-81